sensor_id;sensor_type;location;lat;lon;timestamp;P1;durP1;ratioP1;P2;durP2;ratioP2
14141;SDS011;7151;52.246;4.820;2023-05-07T00:01:14;11.23;;;8.97;;
14141;SDS011;7151;52.246;4.820;2023-05-07T00:03:39;14.60;;;9.10;;
14141;SDS011;7151;52.246;4.820;2023-05-07T00:06:05;10.63;;;8.27;;
14141;SDS011;7151;52.246;4.820;2023-05-07T00:08:31;11.20;;;8.63;;
14141;SDS011;7151;52.246;4.820;2023-05-07T00:10:56;11.10;;;9.17;;
14141;SDS011;7151;52.246;4.820;2023-05-07T00:13:22;15.37;;;9.33;;
14141;SDS011;7151;52.246;4.820;2023-05-07T00:15:47;15.93;;;10.10;;
14141;SDS011;7151;52.246;4.820;2023-05-07T00:18:13;11.37;;;10.17;;
14141;SDS011;7151;52.246;4.820;2023-05-07T00:20:38;13.90;;;10.17;;
14141;SDS011;7151;52.246;4.820;2023-05-07T00:23:04;13.93;;;10.70;;
14141;SDS011;7151;52.246;4.820;2023-05-07T00:25:29;16.13;;;10.47;;
14141;SDS011;7151;52.246;4.820;2023-05-07T00:27:55;13.27;;;10.60;;
14141;SDS011;7151;52.246;4.820;2023-05-07T00:30:22;14.73;;;10.73;;
14141;SDS011;7151;52.246;4.820;2023-05-07T00:32:47;14.30;;;11.27;;
14141;SDS011;7151;52.246;4.820;2023-05-07T00:35:14;16.83;;;11.43;;
14141;SDS011;7151;52.246;4.820;2023-05-07T00:37:39;13.50;;;9.93;;
14141;SDS011;7151;52.246;4.820;2023-05-07T00:40:05;17.60;;;11.57;;
14141;SDS011;7151;52.246;4.820;2023-05-07T00:42:32;16.73;;;11.47;;
14141;SDS011;7151;52.246;4.820;2023-05-07T00:44:58;18.60;;;11.93;;
14141;SDS011;7151;52.246;4.820;2023-05-07T00:47:24;16.83;;;11.77;;
14141;SDS011;7151;52.246;4.820;2023-05-07T00:49:50;15.13;;;11.57;;
14141;SDS011;7151;52.246;4.820;2023-05-07T00:52:17;18.40;;;12.30;;
14141;SDS011;7151;52.246;4.820;2023-05-07T00:54:47;17.43;;;11.70;;
14141;SDS011;7151;52.246;4.820;2023-05-07T00:57:12;19.07;;;12.43;;
14141;SDS011;7151;52.246;4.820;2023-05-07T00:59:39;16.97;;;13.07;;
14141;SDS011;7151;52.246;4.820;2023-05-07T01:02:06;18.27;;;11.70;;
14141;SDS011;7151;52.246;4.820;2023-05-07T01:04:32;17.97;;;12.90;;
14141;SDS011;7151;52.246;4.820;2023-05-07T01:06:57;18.67;;;12.60;;
14141;SDS011;7151;52.246;4.820;2023-05-07T01:09:24;17.37;;;11.37;;
14141;SDS011;7151;52.246;4.820;2023-05-07T01:11:51;17.77;;;11.97;;
14141;SDS011;7151;52.246;4.820;2023-05-07T01:14:17;17.37;;;12.37;;
14141;SDS011;7151;52.246;4.820;2023-05-07T01:16:43;18.23;;;12.37;;
14141;SDS011;7151;52.246;4.820;2023-05-07T01:19:09;15.23;;;11.27;;
14141;SDS011;7151;52.246;4.820;2023-05-07T01:21:39;15.77;;;11.53;;
14141;SDS011;7151;52.246;4.820;2023-05-07T01:24:10;16.77;;;11.90;;
14141;SDS011;7151;52.246;4.820;2023-05-07T01:26:36;18.00;;;12.37;;
14141;SDS011;7151;52.246;4.820;2023-05-07T01:29:02;16.20;;;12.00;;
14141;SDS011;7151;52.246;4.820;2023-05-07T01:31:28;19.93;;;11.90;;
14141;SDS011;7151;52.246;4.820;2023-05-07T01:33:54;17.90;;;12.40;;
14141;SDS011;7151;52.246;4.820;2023-05-07T01:36:21;19.83;;;12.80;;
14141;SDS011;7151;52.246;4.820;2023-05-07T01:38:50;18.77;;;12.50;;
14141;SDS011;7151;52.246;4.820;2023-05-07T01:41:16;20.03;;;12.73;;
14141;SDS011;7151;52.246;4.820;2023-05-07T01:43:42;18.13;;;12.40;;
14141;SDS011;7151;52.246;4.820;2023-05-07T01:46:08;18.93;;;13.43;;
14141;SDS011;7151;52.246;4.820;2023-05-07T01:48:35;16.07;;;12.17;;
14141;SDS011;7151;52.246;4.820;2023-05-07T01:51:00;14.90;;;11.10;;
14141;SDS011;7151;52.246;4.820;2023-05-07T01:53:27;18.20;;;11.47;;
14141;SDS011;7151;52.246;4.820;2023-05-07T01:55:53;14.00;;;10.97;;
14141;SDS011;7151;52.246;4.820;2023-05-07T01:58:18;16.50;;;11.73;;
14141;SDS011;7151;52.246;4.820;2023-05-07T02:00:44;13.27;;;11.17;;
14141;SDS011;7151;52.246;4.820;2023-05-07T02:03:10;17.30;;;11.37;;
14141;SDS011;7151;52.246;4.820;2023-05-07T02:05:35;14.53;;;10.57;;
14141;SDS011;7151;52.246;4.820;2023-05-07T02:08:01;14.37;;;10.63;;
14141;SDS011;7151;52.246;4.820;2023-05-07T02:10:26;15.23;;;9.60;;
14141;SDS011;7151;52.246;4.820;2023-05-07T02:12:52;17.20;;;10.53;;
14141;SDS011;7151;52.246;4.820;2023-05-07T02:15:17;11.07;;;9.43;;
14141;SDS011;7151;52.246;4.820;2023-05-07T02:18:05;13.20;;;9.03;;
14141;SDS011;7151;52.246;4.820;2023-05-07T02:20:32;11.57;;;8.47;;
14141;SDS011;7151;52.246;4.820;2023-05-07T02:22:58;11.63;;;9.27;;
14141;SDS011;7151;52.246;4.820;2023-05-07T02:25:23;12.83;;;9.03;;
14141;SDS011;7151;52.246;4.820;2023-05-07T02:27:49;10.53;;;7.97;;
14141;SDS011;7151;52.246;4.820;2023-05-07T02:30:15;11.03;;;7.17;;
14141;SDS011;7151;52.246;4.820;2023-05-07T02:32:40;9.63;;;7.33;;
14141;SDS011;7151;52.246;4.820;2023-05-07T02:35:06;10.63;;;8.07;;
14141;SDS011;7151;52.246;4.820;2023-05-07T02:37:32;11.63;;;7.50;;
14141;SDS011;7151;52.246;4.820;2023-05-07T02:39:57;9.77;;;7.97;;
14141;SDS011;7151;52.246;4.820;2023-05-07T02:42:23;11.80;;;7.10;;
14141;SDS011;7151;52.246;4.820;2023-05-07T02:44:49;8.93;;;6.20;;
14141;SDS011;7151;52.246;4.820;2023-05-07T02:47:14;8.93;;;6.37;;
14141;SDS011;7151;52.246;4.820;2023-05-07T02:49:40;11.47;;;6.97;;
14141;SDS011;7151;52.246;4.820;2023-05-07T02:52:06;8.70;;;6.77;;
14141;SDS011;7151;52.246;4.820;2023-05-07T02:54:32;8.77;;;6.73;;
14141;SDS011;7151;52.246;4.820;2023-05-07T02:56:58;6.73;;;6.03;;
14141;SDS011;7151;52.246;4.820;2023-05-07T02:59:25;6.73;;;5.27;;
14141;SDS011;7151;52.246;4.820;2023-05-07T03:01:51;5.60;;;4.77;;
14141;SDS011;7151;52.246;4.820;2023-05-07T03:04:16;7.23;;;5.23;;
14141;SDS011;7151;52.246;4.820;2023-05-07T03:06:42;6.67;;;5.10;;
14141;SDS011;7151;52.246;4.820;2023-05-07T03:09:08;6.10;;;5.17;;
14141;SDS011;7151;52.246;4.820;2023-05-07T03:11:33;5.17;;;4.63;;
14141;SDS011;7151;52.246;4.820;2023-05-07T03:14:00;7.13;;;4.90;;
14141;SDS011;7151;52.246;4.820;2023-05-07T03:16:26;6.73;;;4.60;;
14141;SDS011;7151;52.246;4.820;2023-05-07T03:18:52;5.57;;;4.33;;
14141;SDS011;7151;52.246;4.820;2023-05-07T03:21:17;9.97;;;4.50;;
14141;SDS011;7151;52.246;4.820;2023-05-07T03:23:43;6.50;;;4.97;;
14141;SDS011;7151;52.246;4.820;2023-05-07T03:26:08;4.67;;;4.10;;
14141;SDS011;7151;52.246;4.820;2023-05-07T03:28:34;5.20;;;4.40;;
14141;SDS011;7151;52.246;4.820;2023-05-07T03:31:00;6.97;;;5.00;;
14141;SDS011;7151;52.246;4.820;2023-05-07T03:33:25;5.83;;;4.70;;
14141;SDS011;7151;52.246;4.820;2023-05-07T03:35:52;5.43;;;4.20;;
14141;SDS011;7151;52.246;4.820;2023-05-07T03:38:18;6.00;;;4.90;;
14141;SDS011;7151;52.246;4.820;2023-05-07T03:40:43;6.27;;;4.40;;
14141;SDS011;7151;52.246;4.820;2023-05-07T03:43:09;4.83;;;4.13;;
14141;SDS011;7151;52.246;4.820;2023-05-07T03:45:35;7.50;;;4.40;;
14141;SDS011;7151;52.246;4.820;2023-05-07T03:48:00;6.37;;;4.40;;
14141;SDS011;7151;52.246;4.820;2023-05-07T03:50:26;4.70;;;3.80;;
14141;SDS011;7151;52.246;4.820;2023-05-07T03:52:51;4.03;;;3.53;;
14141;SDS011;7151;52.246;4.820;2023-05-07T03:55:17;6.63;;;4.23;;
14141;SDS011;7151;52.246;4.820;2023-05-07T03:57:43;5.13;;;4.63;;
14141;SDS011;7151;52.246;4.820;2023-05-07T04:00:08;4.83;;;3.93;;
14141;SDS011;7151;52.246;4.820;2023-05-07T04:02:34;5.53;;;4.27;;
14141;SDS011;7151;52.246;4.820;2023-05-07T04:05:00;6.20;;;4.10;;
14141;SDS011;7151;52.246;4.820;2023-05-07T04:07:26;4.37;;;3.87;;
14141;SDS011;7151;52.246;4.820;2023-05-07T04:09:51;5.20;;;4.07;;
14141;SDS011;7151;52.246;4.820;2023-05-07T04:12:17;6.07;;;4.83;;
14141;SDS011;7151;52.246;4.820;2023-05-07T04:14:42;5.17;;;4.40;;
14141;SDS011;7151;52.246;4.820;2023-05-07T04:17:08;5.60;;;4.30;;
14141;SDS011;7151;52.246;4.820;2023-05-07T04:19:35;5.63;;;4.43;;
14141;SDS011;7151;52.246;4.820;2023-05-07T04:22:01;4.77;;;4.33;;
14141;SDS011;7151;52.246;4.820;2023-05-07T04:24:26;5.77;;;4.27;;
14141;SDS011;7151;52.246;4.820;2023-05-07T04:26:52;7.23;;;4.33;;
14141;SDS011;7151;52.246;4.820;2023-05-07T04:29:18;4.93;;;4.03;;
14141;SDS011;7151;52.246;4.820;2023-05-07T04:31:43;4.83;;;4.10;;
14141;SDS011;7151;52.246;4.820;2023-05-07T04:34:12;8.53;;;4.60;;
14141;SDS011;7151;52.246;4.820;2023-05-07T04:36:38;5.77;;;3.97;;
14141;SDS011;7151;52.246;4.820;2023-05-07T04:39:03;6.03;;;4.37;;
14141;SDS011;7151;52.246;4.820;2023-05-07T04:41:29;7.67;;;4.20;;
14141;SDS011;7151;52.246;4.820;2023-05-07T04:43:55;9.37;;;4.53;;
14141;SDS011;7151;52.246;4.820;2023-05-07T04:46:21;7.70;;;4.50;;
14141;SDS011;7151;52.246;4.820;2023-05-07T04:48:47;5.83;;;4.07;;
14141;SDS011;7151;52.246;4.820;2023-05-07T04:51:12;6.10;;;4.57;;
14141;SDS011;7151;52.246;4.820;2023-05-07T04:53:38;5.97;;;4.57;;
14141;SDS011;7151;52.246;4.820;2023-05-07T04:56:04;7.30;;;4.37;;
14141;SDS011;7151;52.246;4.820;2023-05-07T04:58:29;8.50;;;5.10;;
14141;SDS011;7151;52.246;4.820;2023-05-07T05:00:56;5.73;;;4.70;;
14141;SDS011;7151;52.246;4.820;2023-05-07T05:03:23;6.07;;;3.73;;
14141;SDS011;7151;52.246;4.820;2023-05-07T05:05:49;6.47;;;4.70;;
14141;SDS011;7151;52.246;4.820;2023-05-07T05:08:16;6.67;;;4.63;;
14141;SDS011;7151;52.246;4.820;2023-05-07T05:10:42;8.53;;;5.13;;
14141;SDS011;7151;52.246;4.820;2023-05-07T05:13:08;5.43;;;4.63;;
14141;SDS011;7151;52.246;4.820;2023-05-07T05:15:34;5.40;;;4.67;;
14141;SDS011;7151;52.246;4.820;2023-05-07T05:18:00;5.60;;;5.00;;
14141;SDS011;7151;52.246;4.820;2023-05-07T05:20:26;6.83;;;4.67;;
14141;SDS011;7151;52.246;4.820;2023-05-07T05:22:51;6.10;;;5.40;;
14141;SDS011;7151;52.246;4.820;2023-05-07T05:25:17;5.90;;;4.90;;
14141;SDS011;7151;52.246;4.820;2023-05-07T05:27:42;6.33;;;5.00;;
14141;SDS011;7151;52.246;4.820;2023-05-07T05:30:08;5.43;;;4.63;;
14141;SDS011;7151;52.246;4.820;2023-05-07T05:32:34;6.77;;;5.13;;
14141;SDS011;7151;52.246;4.820;2023-05-07T05:35:00;9.77;;;5.47;;
14141;SDS011;7151;52.246;4.820;2023-05-07T05:37:25;5.80;;;5.17;;
14141;SDS011;7151;52.246;4.820;2023-05-07T05:39:51;9.47;;;6.00;;
14141;SDS011;7151;52.246;4.820;2023-05-07T05:42:17;5.43;;;4.93;;
14141;SDS011;7151;52.246;4.820;2023-05-07T05:44:43;8.00;;;6.30;;
14141;SDS011;7151;52.246;4.820;2023-05-07T05:47:08;8.23;;;6.63;;
14141;SDS011;7151;52.246;4.820;2023-05-07T05:49:34;7.67;;;5.83;;
14141;SDS011;7151;52.246;4.820;2023-05-07T05:52:00;8.80;;;6.83;;
14141;SDS011;7151;52.246;4.820;2023-05-07T05:54:25;9.03;;;7.27;;
14141;SDS011;7151;52.246;4.820;2023-05-07T05:56:51;8.10;;;6.73;;
14141;SDS011;7151;52.246;4.820;2023-05-07T05:59:16;10.10;;;6.77;;
14141;SDS011;7151;52.246;4.820;2023-05-07T06:01:42;8.97;;;7.10;;
14141;SDS011;7151;52.246;4.820;2023-05-07T06:04:07;10.33;;;8.07;;
14141;SDS011;7151;52.246;4.820;2023-05-07T06:06:33;10.87;;;8.13;;
14141;SDS011;7151;52.246;4.820;2023-05-07T06:08:59;8.63;;;7.37;;
14141;SDS011;7151;52.246;4.820;2023-05-07T06:11:24;10.23;;;7.53;;
14141;SDS011;7151;52.246;4.820;2023-05-07T06:13:50;8.87;;;7.93;;
14141;SDS011;7151;52.246;4.820;2023-05-07T06:16:16;8.90;;;7.43;;
14141;SDS011;7151;52.246;4.820;2023-05-07T06:18:42;11.07;;;7.43;;
14141;SDS011;7151;52.246;4.820;2023-05-07T06:21:07;8.90;;;7.30;;
14141;SDS011;7151;52.246;4.820;2023-05-07T06:23:34;8.10;;;7.13;;
14141;SDS011;7151;52.246;4.820;2023-05-07T06:26:00;8.97;;;6.57;;
14141;SDS011;7151;52.246;4.820;2023-05-07T06:28:26;9.73;;;7.33;;
14141;SDS011;7151;52.246;4.820;2023-05-07T06:30:52;9.43;;;6.93;;
14141;SDS011;7151;52.246;4.820;2023-05-07T06:33:18;10.03;;;7.33;;
14141;SDS011;7151;52.246;4.820;2023-05-07T06:35:44;8.93;;;7.17;;
14141;SDS011;7151;52.246;4.820;2023-05-07T06:38:10;9.17;;;7.07;;
14141;SDS011;7151;52.246;4.820;2023-05-07T06:40:37;9.50;;;6.43;;
14141;SDS011;7151;52.246;4.820;2023-05-07T06:43:02;7.50;;;6.80;;
14141;SDS011;7151;52.246;4.820;2023-05-07T06:45:28;10.27;;;7.17;;
14141;SDS011;7151;52.246;4.820;2023-05-07T06:47:53;10.53;;;7.63;;
14141;SDS011;7151;52.246;4.820;2023-05-07T06:50:19;8.70;;;6.57;;
14141;SDS011;7151;52.246;4.820;2023-05-07T06:52:45;10.97;;;7.30;;
14141;SDS011;7151;52.246;4.820;2023-05-07T06:55:10;9.50;;;7.00;;
14141;SDS011;7151;52.246;4.820;2023-05-07T06:57:36;7.97;;;6.03;;
14141;SDS011;7151;52.246;4.820;2023-05-07T07:00:02;7.63;;;6.83;;
14141;SDS011;7151;52.246;4.820;2023-05-07T07:02:29;12.53;;;7.53;;
14141;SDS011;7151;52.246;4.820;2023-05-07T07:04:54;8.77;;;6.53;;
14141;SDS011;7151;52.246;4.820;2023-05-07T07:07:20;8.47;;;6.57;;
14141;SDS011;7151;52.246;4.820;2023-05-07T07:09:46;9.20;;;6.97;;
14141;SDS011;7151;52.246;4.820;2023-05-07T07:12:11;10.93;;;7.23;;
14141;SDS011;7151;52.246;4.820;2023-05-07T07:14:37;9.57;;;6.87;;
14141;SDS011;7151;52.246;4.820;2023-05-07T07:17:02;9.37;;;6.97;;
14141;SDS011;7151;52.246;4.820;2023-05-07T07:19:30;10.00;;;6.50;;
14141;SDS011;7151;52.246;4.820;2023-05-07T07:21:55;10.03;;;6.83;;
14141;SDS011;7151;52.246;4.820;2023-05-07T07:24:21;7.87;;;6.77;;
14141;SDS011;7151;52.246;4.820;2023-05-07T07:26:46;9.00;;;7.53;;
14141;SDS011;7151;52.246;4.820;2023-05-07T07:29:12;9.57;;;7.23;;
14141;SDS011;7151;52.246;4.820;2023-05-07T07:31:38;13.50;;;7.43;;
14141;SDS011;7151;52.246;4.820;2023-05-07T07:34:03;9.70;;;7.23;;
14141;SDS011;7151;52.246;4.820;2023-05-07T07:36:29;8.33;;;6.67;;
14141;SDS011;7151;52.246;4.820;2023-05-07T07:38:55;8.07;;;6.37;;
14141;SDS011;7151;52.246;4.820;2023-05-07T07:41:20;12.27;;;7.70;;
14141;SDS011;7151;52.246;4.820;2023-05-07T07:43:46;12.37;;;7.73;;
14141;SDS011;7151;52.246;4.820;2023-05-07T07:46:12;10.33;;;6.83;;
14141;SDS011;7151;52.246;4.820;2023-05-07T07:48:38;8.53;;;7.57;;
14141;SDS011;7151;52.246;4.820;2023-05-07T07:51:03;9.83;;;7.47;;
14141;SDS011;7151;52.246;4.820;2023-05-07T07:53:29;11.00;;;8.10;;
14141;SDS011;7151;52.246;4.820;2023-05-07T07:55:55;8.30;;;7.13;;
14141;SDS011;7151;52.246;4.820;2023-05-07T07:58:20;7.23;;;5.97;;
14141;SDS011;7151;52.246;4.820;2023-05-07T08:00:47;7.20;;;6.40;;
14141;SDS011;7151;52.246;4.820;2023-05-07T08:03:12;10.37;;;7.13;;
14141;SDS011;7151;52.246;4.820;2023-05-07T08:05:39;9.23;;;6.57;;
14141;SDS011;7151;52.246;4.820;2023-05-07T08:08:04;9.97;;;7.20;;
14141;SDS011;7151;52.246;4.820;2023-05-07T08:10:31;7.93;;;6.90;;
14141;SDS011;7151;52.246;4.820;2023-05-07T08:12:59;7.70;;;6.23;;
14141;SDS011;7151;52.246;4.820;2023-05-07T08:15:25;8.43;;;6.27;;
14141;SDS011;7151;52.246;4.820;2023-05-07T08:17:51;8.77;;;6.30;;
14141;SDS011;7151;52.246;4.820;2023-05-07T08:20:16;8.67;;;7.10;;
14141;SDS011;7151;52.246;4.820;2023-05-07T08:22:42;7.70;;;6.90;;
14141;SDS011;7151;52.246;4.820;2023-05-07T08:25:07;10.50;;;7.37;;
14141;SDS011;7151;52.246;4.820;2023-05-07T08:27:33;11.10;;;6.67;;
14141;SDS011;7151;52.246;4.820;2023-05-07T08:29:59;13.33;;;6.63;;
14141;SDS011;7151;52.246;4.820;2023-05-07T08:32:25;8.83;;;6.03;;
14141;SDS011;7151;52.246;4.820;2023-05-07T08:34:50;7.37;;;6.23;;
14141;SDS011;7151;52.246;4.820;2023-05-07T08:37:16;6.80;;;5.80;;
14141;SDS011;7151;52.246;4.820;2023-05-07T08:39:42;7.90;;;5.90;;
14141;SDS011;7151;52.246;4.820;2023-05-07T08:42:07;9.37;;;6.87;;
14141;SDS011;7151;52.246;4.820;2023-05-07T08:44:36;7.97;;;6.07;;
14141;SDS011;7151;52.246;4.820;2023-05-07T08:47:05;6.40;;;5.10;;
14141;SDS011;7151;52.246;4.820;2023-05-07T08:49:32;6.33;;;5.33;;
14141;SDS011;7151;52.246;4.820;2023-05-07T08:51:58;8.30;;;5.30;;
14141;SDS011;7151;52.246;4.820;2023-05-07T08:54:24;11.13;;;6.10;;
14141;SDS011;7151;52.246;4.820;2023-05-07T08:56:50;7.83;;;5.17;;
14141;SDS011;7151;52.246;4.820;2023-05-07T08:59:16;7.57;;;5.60;;
14141;SDS011;7151;52.246;4.820;2023-05-07T09:01:42;6.83;;;5.37;;
14141;SDS011;7151;52.246;4.820;2023-05-07T09:04:08;6.07;;;5.30;;
14141;SDS011;7151;52.246;4.820;2023-05-07T09:06:34;8.47;;;5.57;;
14141;SDS011;7151;52.246;4.820;2023-05-07T09:09:00;9.30;;;6.17;;
14141;SDS011;7151;52.246;4.820;2023-05-07T09:11:26;7.30;;;5.90;;
14141;SDS011;7151;52.246;4.820;2023-05-07T09:13:55;7.40;;;6.27;;
14141;SDS011;7151;52.246;4.820;2023-05-07T09:16:28;7.00;;;5.77;;
14141;SDS011;7151;52.246;4.820;2023-05-07T09:18:57;8.57;;;5.37;;
14141;SDS011;7151;52.246;4.820;2023-05-07T09:21:23;9.43;;;5.73;;
14141;SDS011;7151;52.246;4.820;2023-05-07T09:23:52;6.70;;;5.10;;
14141;SDS011;7151;52.246;4.820;2023-05-07T09:26:23;8.63;;;6.03;;
14141;SDS011;7151;52.246;4.820;2023-05-07T09:28:49;7.10;;;5.73;;
14141;SDS011;7151;52.246;4.820;2023-05-07T09:31:15;7.13;;;5.20;;
14141;SDS011;7151;52.246;4.820;2023-05-07T09:33:41;9.00;;;6.47;;
14141;SDS011;7151;52.246;4.820;2023-05-07T09:36:09;7.33;;;5.47;;
14141;SDS011;7151;52.246;4.820;2023-05-07T09:38:35;7.67;;;5.87;;
14141;SDS011;7151;52.246;4.820;2023-05-07T09:41:05;6.53;;;5.53;;
14141;SDS011;7151;52.246;4.820;2023-05-07T09:43:33;6.63;;;5.10;;
14141;SDS011;7151;52.246;4.820;2023-05-07T09:46:03;7.20;;;5.50;;
14141;SDS011;7151;52.246;4.820;2023-05-07T09:48:41;7.10;;;5.07;;
14141;SDS011;7151;52.246;4.820;2023-05-07T09:54:01;5.50;;;4.93;;
14141;SDS011;7151;52.246;4.820;2023-05-07T09:56:29;5.53;;;5.03;;
14141;SDS011;7151;52.246;4.820;2023-05-07T09:58:56;7.93;;;5.57;;
14141;SDS011;7151;52.246;4.820;2023-05-07T10:01:25;9.03;;;5.47;;
14141;SDS011;7151;52.246;4.820;2023-05-07T10:03:52;6.30;;;5.43;;
14141;SDS011;7151;52.246;4.820;2023-05-07T10:06:21;8.00;;;5.00;;
14141;SDS011;7151;52.246;4.820;2023-05-07T10:08:49;9.03;;;5.80;;
14141;SDS011;7151;52.246;4.820;2023-05-07T10:11:15;7.53;;;5.47;;
14141;SDS011;7151;52.246;4.820;2023-05-07T10:13:42;8.17;;;6.00;;
14141;SDS011;7151;52.246;4.820;2023-05-07T10:16:08;11.13;;;5.80;;
14141;SDS011;7151;52.246;4.820;2023-05-07T10:18:34;8.33;;;5.10;;
14141;SDS011;7151;52.246;4.820;2023-05-07T10:21:33;6.90;;;5.97;;
14141;SDS011;7151;52.246;4.820;2023-05-07T10:24:05;5.40;;;4.07;;
14141;SDS011;7151;52.246;4.820;2023-05-07T10:26:38;9.23;;;5.13;;
14141;SDS011;7151;52.246;4.820;2023-05-07T10:34:43;5.63;;;4.30;;
14141;SDS011;7151;52.246;4.820;2023-05-07T10:37:10;4.07;;;3.70;;
14141;SDS011;7151;52.246;4.820;2023-05-07T10:39:37;4.77;;;3.70;;
14141;SDS011;7151;52.246;4.820;2023-05-07T10:42:13;6.50;;;4.03;;
14141;SDS011;7151;52.246;4.820;2023-05-07T10:44:39;6.63;;;3.50;;
14141;SDS011;7151;52.246;4.820;2023-05-07T10:47:06;5.53;;;4.07;;
14141;SDS011;7151;52.246;4.820;2023-05-07T10:52:12;3.77;;;3.37;;
14141;SDS011;7151;52.246;4.820;2023-05-07T10:54:42;3.90;;;3.13;;
14141;SDS011;7151;52.246;4.820;2023-05-07T10:59:57;5.07;;;4.10;;
14141;SDS011;7151;52.246;4.820;2023-05-07T11:02:22;4.47;;;3.83;;
14141;SDS011;7151;52.246;4.820;2023-05-07T11:07:57;4.03;;;3.43;;
14141;SDS011;7151;52.246;4.820;2023-05-07T11:13:43;4.60;;;3.63;;
14141;SDS011;7151;52.246;4.820;2023-05-07T11:16:19;4.60;;;3.43;;
14141;SDS011;7151;52.246;4.820;2023-05-07T11:18:51;7.20;;;4.03;;
14141;SDS011;7151;52.246;4.820;2023-05-07T11:21:35;8.70;;;4.53;;
14141;SDS011;7151;52.246;4.820;2023-05-07T11:24:05;5.27;;;3.97;;
14141;SDS011;7151;52.246;4.820;2023-05-07T11:26:45;5.97;;;4.13;;
14141;SDS011;7151;52.246;4.820;2023-05-07T11:29:15;5.10;;;4.23;;
14141;SDS011;7151;52.246;4.820;2023-05-07T11:31:49;3.63;;;3.33;;
14141;SDS011;7151;52.246;4.820;2023-05-07T11:34:20;4.33;;;3.93;;
14141;SDS011;7151;52.246;4.820;2023-05-07T11:36:47;4.63;;;3.80;;
14141;SDS011;7151;52.246;4.820;2023-05-07T11:39:27;4.93;;;4.30;;
14141;SDS011;7151;52.246;4.820;2023-05-07T11:41:55;5.17;;;3.80;;
14141;SDS011;7151;52.246;4.820;2023-05-07T11:44:20;5.30;;;4.33;;
14141;SDS011;7151;52.246;4.820;2023-05-07T11:46:46;5.90;;;4.70;;
14141;SDS011;7151;52.246;4.820;2023-05-07T11:49:13;5.00;;;4.10;;
14141;SDS011;7151;52.246;4.820;2023-05-07T11:51:38;6.00;;;4.07;;
14141;SDS011;7151;52.246;4.820;2023-05-07T11:54:05;4.23;;;3.23;;
14141;SDS011;7151;52.246;4.820;2023-05-07T11:56:36;5.90;;;2.90;;
14141;SDS011;7151;52.246;4.820;2023-05-07T11:59:02;3.23;;;2.53;;
14141;SDS011;7151;52.246;4.820;2023-05-07T12:01:27;3.90;;;2.90;;
14141;SDS011;7151;52.246;4.820;2023-05-07T12:03:53;3.63;;;2.47;;
14141;SDS011;7151;52.246;4.820;2023-05-07T12:06:18;6.10;;;2.20;;
14141;SDS011;7151;52.246;4.820;2023-05-07T12:08:44;2.67;;;2.10;;
14141;SDS011;7151;52.246;4.820;2023-05-07T12:11:15;4.30;;;1.87;;
14141;SDS011;7151;52.246;4.820;2023-05-07T12:13:46;2.73;;;2.07;;
14141;SDS011;7151;52.246;4.820;2023-05-07T12:16:12;3.10;;;2.20;;
14141;SDS011;7151;52.246;4.820;2023-05-07T12:18:37;3.50;;;2.80;;
14141;SDS011;7151;52.246;4.820;2023-05-07T12:21:04;4.13;;;3.00;;
14141;SDS011;7151;52.246;4.820;2023-05-07T12:23:31;3.53;;;2.33;;
14141;SDS011;7151;52.246;4.820;2023-05-07T12:25:56;3.27;;;2.73;;
14141;SDS011;7151;52.246;4.820;2023-05-07T12:28:22;4.73;;;3.30;;
14141;SDS011;7151;52.246;4.820;2023-05-07T12:30:48;5.47;;;3.93;;
14141;SDS011;7151;52.246;4.820;2023-05-07T12:33:19;6.17;;;3.90;;
14141;SDS011;7151;52.246;4.820;2023-05-07T12:35:49;5.77;;;3.10;;
14141;SDS011;7151;52.246;4.820;2023-05-07T12:38:15;4.17;;;3.10;;
14141;SDS011;7151;52.246;4.820;2023-05-07T12:40:45;4.07;;;3.13;;
14141;SDS011;7151;52.246;4.820;2023-05-07T12:45:50;3.37;;;2.90;;
14141;SDS011;7151;52.246;4.820;2023-05-07T12:48:16;4.93;;;3.00;;
14141;SDS011;7151;52.246;4.820;2023-05-07T12:50:42;4.30;;;3.23;;
14141;SDS011;7151;52.246;4.820;2023-05-07T12:53:10;3.30;;;2.87;;
14141;SDS011;7151;52.246;4.820;2023-05-07T12:55:44;4.00;;;2.70;;
14141;SDS011;7151;52.246;4.820;2023-05-07T12:58:14;5.70;;;3.70;;
14141;SDS011;7151;52.246;4.820;2023-05-07T13:00:45;5.37;;;3.30;;
14141;SDS011;7151;52.246;4.820;2023-05-07T13:03:20;5.07;;;2.87;;
14141;SDS011;7151;52.246;4.820;2023-05-07T13:05:47;5.00;;;3.20;;
14141;SDS011;7151;52.246;4.820;2023-05-07T13:08:22;4.77;;;3.80;;
14141;SDS011;7151;52.246;4.820;2023-05-07T13:10:52;4.83;;;3.13;;
14141;SDS011;7151;52.246;4.820;2023-05-07T13:13:18;3.23;;;2.87;;
14141;SDS011;7151;52.246;4.820;2023-05-07T13:15:45;3.40;;;3.10;;
14141;SDS011;7151;52.246;4.820;2023-05-07T13:18:10;4.20;;;3.00;;
14141;SDS011;7151;52.246;4.820;2023-05-07T13:20:36;4.67;;;2.83;;
14141;SDS011;7151;52.246;4.820;2023-05-07T13:23:02;5.90;;;3.00;;
14141;SDS011;7151;52.246;4.820;2023-05-07T13:25:29;2.93;;;2.67;;
14141;SDS011;7151;52.246;4.820;2023-05-07T13:27:56;3.97;;;2.90;;
14141;SDS011;7151;52.246;4.820;2023-05-07T13:30:22;3.97;;;3.47;;
14141;SDS011;7151;52.246;4.820;2023-05-07T13:32:48;3.57;;;2.90;;
14141;SDS011;7151;52.246;4.820;2023-05-07T13:35:14;5.33;;;3.20;;
14141;SDS011;7151;52.246;4.820;2023-05-07T13:37:40;5.80;;;3.20;;
14141;SDS011;7151;52.246;4.820;2023-05-07T13:40:06;3.60;;;2.83;;
14141;SDS011;7151;52.246;4.820;2023-05-07T13:42:32;6.83;;;3.30;;
14141;SDS011;7151;52.246;4.820;2023-05-07T13:44:58;8.47;;;4.60;;
14141;SDS011;7151;52.246;4.820;2023-05-07T13:47:23;13.20;;;6.53;;
14141;SDS011;7151;52.246;4.820;2023-05-07T13:49:49;13.10;;;6.93;;
14141;SDS011;7151;52.246;4.820;2023-05-07T13:52:15;11.60;;;6.10;;
14141;SDS011;7151;52.246;4.820;2023-05-07T13:54:41;11.00;;;6.87;;
14141;SDS011;7151;52.246;4.820;2023-05-07T13:57:07;10.77;;;6.70;;
14141;SDS011;7151;52.246;4.820;2023-05-07T13:59:33;10.83;;;6.97;;
14141;SDS011;7151;52.246;4.820;2023-05-07T14:01:58;8.07;;;5.80;;
14141;SDS011;7151;52.246;4.820;2023-05-07T14:04:24;4.70;;;3.20;;
14141;SDS011;7151;52.246;4.820;2023-05-07T14:06:50;7.67;;;3.70;;
14141;SDS011;7151;52.246;4.820;2023-05-07T14:09:15;8.53;;;6.60;;
14141;SDS011;7151;52.246;4.820;2023-05-07T14:11:41;7.60;;;6.47;;
14141;SDS011;7151;52.246;4.820;2023-05-07T14:14:07;8.03;;;7.10;;
14141;SDS011;7151;52.246;4.820;2023-05-07T14:16:35;9.93;;;6.13;;
14141;SDS011;7151;52.246;4.820;2023-05-07T14:19:01;10.87;;;7.03;;
14141;SDS011;7151;52.246;4.820;2023-05-07T14:21:26;9.07;;;6.80;;
14141;SDS011;7151;52.246;4.820;2023-05-07T14:23:52;7.30;;;6.33;;
14141;SDS011;7151;52.246;4.820;2023-05-07T14:26:17;8.70;;;6.60;;
14141;SDS011;7151;52.246;4.820;2023-05-07T14:28:44;7.83;;;6.43;;
14141;SDS011;7151;52.246;4.820;2023-05-07T14:31:11;11.17;;;6.50;;
14141;SDS011;7151;52.246;4.820;2023-05-07T14:33:37;7.40;;;6.70;;
14141;SDS011;7151;52.246;4.820;2023-05-07T14:36:02;9.73;;;7.43;;
14141;SDS011;7151;52.246;4.820;2023-05-07T14:38:28;10.63;;;8.63;;
14141;SDS011;7151;52.246;4.820;2023-05-07T14:40:55;11.77;;;8.17;;
14141;SDS011;7151;52.246;4.820;2023-05-07T14:43:21;11.87;;;8.83;;
14141;SDS011;7151;52.246;4.820;2023-05-07T14:45:47;13.50;;;8.53;;
14141;SDS011;7151;52.246;4.820;2023-05-07T14:48:12;14.37;;;8.27;;
14141;SDS011;7151;52.246;4.820;2023-05-07T14:50:40;16.77;;;9.33;;
14141;SDS011;7151;52.246;4.820;2023-05-07T14:53:06;12.47;;;8.83;;
14141;SDS011;7151;52.246;4.820;2023-05-07T14:55:32;17.07;;;9.67;;
14141;SDS011;7151;52.246;4.820;2023-05-07T14:57:58;14.47;;;9.57;;
14141;SDS011;7151;52.246;4.820;2023-05-07T15:00:24;13.47;;;10.07;;
14141;SDS011;7151;52.246;4.820;2023-05-07T15:02:50;12.57;;;9.63;;
14141;SDS011;7151;52.246;4.820;2023-05-07T15:05:16;17.47;;;10.30;;
14141;SDS011;7151;52.246;4.820;2023-05-07T15:07:43;12.77;;;9.13;;
14141;SDS011;7151;52.246;4.820;2023-05-07T15:10:09;15.40;;;10.03;;
14141;SDS011;7151;52.246;4.820;2023-05-07T15:12:34;15.80;;;10.70;;
14141;SDS011;7151;52.246;4.820;2023-05-07T15:15:00;16.67;;;10.60;;